createdAt,value
2018-08-07T00:00:30.579Z,8.63
2018-08-07T00:02:59.074Z,3.80
2018-08-07T00:05:27.095Z,5.10
2018-08-07T00:07:55.744Z,5.70
2018-08-07T00:10:26.188Z,3.13
2018-08-07T00:12:54.281Z,2.57
2018-08-07T00:15:23.948Z,8.53
2018-08-07T00:17:52.031Z,4.60
2018-08-07T00:20:20.068Z,5.00
2018-08-07T00:22:48.163Z,4.80
2018-08-07T00:25:16.473Z,4.77
2018-08-07T00:27:44.659Z,4.60
2018-08-07T00:30:14.835Z,11.27
2018-08-07T00:32:42.679Z,7.87
2018-08-07T00:35:13.223Z,4.57
2018-08-07T00:37:41.496Z,4.60
2018-08-07T00:40:12.448Z,8.53
2018-08-07T00:42:41.878Z,5.27
2018-08-07T00:45:13.502Z,3.43
2018-08-07T00:47:41.699Z,8.20
2018-08-07T00:50:11.066Z,10.87
2018-08-07T00:52:40.632Z,5.70
2018-08-07T00:55:09.487Z,3.80
2018-08-07T00:57:37.370Z,6.07
2018-08-07T01:00:08.194Z,4.10
2018-08-07T01:02:36.473Z,6.40
2018-08-07T01:05:06.384Z,4.63
2018-08-07T01:07:34.422Z,5.80
2018-08-07T01:10:02.449Z,6.57
2018-08-07T01:12:30.423Z,3.97
2018-08-07T01:14:58.446Z,4.10
2018-08-07T01:17:26.181Z,5.57
2018-08-07T01:19:54.137Z,4.00
2018-08-07T01:22:22.655Z,10.33
2018-08-07T01:24:50.651Z,6.30
2018-08-07T01:27:19.379Z,6.90
2018-08-07T01:29:47.486Z,10.93
2018-08-07T01:32:15.981Z,5.73
2018-08-07T01:34:43.948Z,4.00
2018-08-07T01:37:11.902Z,6.33
2018-08-07T01:39:39.689Z,6.40
2018-08-07T01:42:08.142Z,3.67
2018-08-07T01:44:36.790Z,4.70
2018-08-07T01:47:04.860Z,6.47
2018-08-07T01:49:32.852Z,8.27
2018-08-07T01:52:01.429Z,9.83
2018-08-07T01:54:29.759Z,5.63
2018-08-07T01:56:58.506Z,4.73
2018-08-07T01:59:26.504Z,3.80
2018-08-07T02:01:54.493Z,7.80
2018-08-07T02:04:22.416Z,4.00
2018-08-07T02:06:50.726Z,15.83
2018-08-07T02:09:18.484Z,16.87
2018-08-07T02:11:46.415Z,5.80
2018-08-07T02:14:14.742Z,7.67
2018-08-07T02:16:42.705Z,8.17
2018-08-07T02:19:10.481Z,9.67
2018-08-07T02:21:39.023Z,6.03
2018-08-07T02:24:07.574Z,4.40
2018-08-07T02:26:35.477Z,5.60
2018-08-07T02:29:03.441Z,7.73
2018-08-07T02:31:31.362Z,9.70
2018-08-07T02:33:59.267Z,9.93
2018-08-07T02:36:27.812Z,5.73
2018-08-07T02:38:55.741Z,4.17
2018-08-07T02:41:23.697Z,9.50
2018-08-07T02:43:51.661Z,17.40
2018-08-07T02:46:19.557Z,9.07
2018-08-07T02:48:47.982Z,4.70
2018-08-07T02:51:15.884Z,8.50
2018-08-07T02:53:43.756Z,4.30
2018-08-07T02:56:12.329Z,9.57
2018-08-07T02:58:40.140Z,10.37
2018-08-07T03:01:08.246Z,4.73
2018-08-07T03:03:36.137Z,14.63
2018-08-07T03:06:04.113Z,3.80
2018-08-07T03:08:32.001Z,6.37
2018-08-07T03:11:00.688Z,5.37
2018-08-07T03:13:28.465Z,4.67
2018-08-07T03:15:56.580Z,7.37
2018-08-07T03:18:24.535Z,8.00
2018-08-07T03:20:52.412Z,5.23
2018-08-07T03:23:20.883Z,4.27
2018-08-07T03:25:48.751Z,7.10
2018-08-07T03:28:16.694Z,5.40
2018-08-07T03:30:45.264Z,4.87
2018-08-07T03:33:13.229Z,9.20
2018-08-07T03:35:41.153Z,4.97
2018-08-07T03:38:09.316Z,19.93
2018-08-07T03:40:37.222Z,5.60
2018-08-07T03:43:05.380Z,7.90
2018-08-07T03:45:33.280Z,4.53
2018-08-07T03:48:01.181Z,4.77
2018-08-07T03:50:29.054Z,7.10
2018-08-07T03:52:57.021Z,6.43
2018-08-07T03:55:25.520Z,5.97
2018-08-07T03:57:53.541Z,7.03
2018-08-07T04:00:22.419Z,12.03
2018-08-07T04:02:50.588Z,7.37
2018-08-07T04:05:19.211Z,9.80
2018-08-07T04:07:47.231Z,6.13
2018-08-07T04:10:17.508Z,11.57
2018-08-07T04:12:45.530Z,8.30
2018-08-07T04:15:15.116Z,8.80
2018-08-07T04:17:43.626Z,5.83
2018-08-07T04:20:12.759Z,7.00
2018-08-07T04:22:40.845Z,7.73
2018-08-07T04:25:08.780Z,5.57
2018-08-07T04:27:37.901Z,7.90
2018-08-07T04:30:10.322Z,11.53
2018-08-07T04:32:38.411Z,6.50
2018-08-07T04:35:06.629Z,12.37
2018-08-07T04:37:37.153Z,9.30
2018-08-07T04:40:06.109Z,13.53
2018-08-07T04:42:35.341Z,7.20
2018-08-07T04:45:04.563Z,12.57
2018-08-07T04:47:33.347Z,17.87
2018-08-07T04:50:03.416Z,7.60
2018-08-07T04:52:32.781Z,5.70
2018-08-07T04:55:05.126Z,11.50
2018-08-07T04:57:35.879Z,15.47
2018-08-07T05:00:11.129Z,10.73
2018-08-07T05:02:41.411Z,16.83
2018-08-07T05:05:09.883Z,11.87
2018-08-07T05:07:37.982Z,9.03
2018-08-07T05:10:09.777Z,15.87
2018-08-07T05:12:37.739Z,5.67
2018-08-07T05:15:07.439Z,16.67
2018-08-07T05:17:35.335Z,14.83
2018-08-07T05:20:03.322Z,9.70
2018-08-07T05:22:31.879Z,10.37
2018-08-07T05:25:00.808Z,24.90
2018-08-07T05:27:28.863Z,10.23
2018-08-07T05:29:56.920Z,11.03
2018-08-07T05:32:25.586Z,9.93
2018-08-07T05:34:54.149Z,8.80
2018-08-07T05:37:22.091Z,10.00
2018-08-07T05:39:50.028Z,7.50
2018-08-07T05:42:17.873Z,10.17
2018-08-07T05:44:46.750Z,7.93
2018-08-07T05:47:14.813Z,10.43
2018-08-07T05:49:42.791Z,6.00
2018-08-07T05:52:10.747Z,7.80
2018-08-07T05:54:38.722Z,5.87
2018-08-07T05:57:06.670Z,23.30
2018-08-07T05:59:36.002Z,17.30
2018-08-07T06:02:04.101Z,18.23
2018-08-07T06:04:31.931Z,16.17
2018-08-07T06:06:59.956Z,15.70
2018-08-07T06:09:27.722Z,11.23
2018-08-07T06:11:55.470Z,11.73
2018-08-07T06:14:23.441Z,18.93
2018-08-07T06:16:51.241Z,8.93
2018-08-07T06:19:19.158Z,8.53
2018-08-07T06:21:48.074Z,11.10
2018-08-07T06:24:16.070Z,14.83
2018-08-07T06:26:43.965Z,15.80
2018-08-07T06:29:12.566Z,12.83
2018-08-07T06:31:40.884Z,15.00
2018-08-07T06:34:08.650Z,15.40
2018-08-07T06:36:36.634Z,11.20
2018-08-07T06:39:06.771Z,9.50
2018-08-07T06:41:35.121Z,11.93
2018-08-07T06:44:03.853Z,10.30
2018-08-07T06:46:31.797Z,9.00
2018-08-07T06:48:59.764Z,13.47
2018-08-07T06:51:28.002Z,13.23
2018-08-07T06:53:55.874Z,11.10
2018-08-07T06:56:24.227Z,16.30
2018-08-07T06:58:52.823Z,6.93
2018-08-07T07:01:22.090Z,10.33
2018-08-07T07:03:50.112Z,7.23
2018-08-07T07:06:17.892Z,8.70
2018-08-07T07:08:45.821Z,7.70
2018-08-07T07:11:14.067Z,10.20
2018-08-07T07:13:42.836Z,7.80
2018-08-07T07:16:10.767Z,12.63
2018-08-07T07:18:38.703Z,14.73
2018-08-07T07:21:06.811Z,7.03
2018-08-07T07:23:34.605Z,8.73
2018-08-07T07:26:02.592Z,7.87
2018-08-07T07:28:31.161Z,5.73
2018-08-07T07:30:59.110Z,6.10
2018-08-07T07:33:27.033Z,7.97
2018-08-07T07:35:54.976Z,6.60
2018-08-07T07:38:22.894Z,9.17
2018-08-07T07:40:50.727Z,15.30
2018-08-07T07:43:18.667Z,13.43
2018-08-07T07:45:47.642Z,12.17
2018-08-07T07:48:15.410Z,7.30
2018-08-07T07:50:43.224Z,5.63
2018-08-07T07:53:11.128Z,9.50
2018-08-07T07:55:39.021Z,5.10
2018-08-07T07:58:07.401Z,10.20
2018-08-07T08:00:35.343Z,9.00
2018-08-07T08:03:03.314Z,12.57
2018-08-07T08:05:31.126Z,9.80
2018-08-07T08:07:59.098Z,8.00
2018-08-07T08:10:27.006Z,6.60
2018-08-07T08:12:55.524Z,8.73
2018-08-07T08:15:24.253Z,6.70
2018-08-07T08:17:52.959Z,12.27
2018-08-07T08:20:23.014Z,15.60
2018-08-07T08:22:51.820Z,14.43
2018-08-07T08:25:23.190Z,10.37
2018-08-07T08:27:51.751Z,9.53
2018-08-07T08:30:19.849Z,10.50
2018-08-07T08:32:48.636Z,8.30
2018-08-07T08:35:17.731Z,8.87
2018-08-07T08:37:46.185Z,12.00
2018-08-07T08:40:15.828Z,12.17
2018-08-07T08:42:44.042Z,6.83
2018-08-07T08:45:16.160Z,8.70
2018-08-07T08:47:45.212Z,18.90
2018-08-07T08:50:15.758Z,11.90
2018-08-07T08:52:44.305Z,7.20
2018-08-07T08:55:12.375Z,11.60
2018-08-07T08:57:41.527Z,16.00
2018-08-07T09:00:17.509Z,9.00
2018-08-07T09:02:46.166Z,9.03
2018-08-07T09:05:14.299Z,10.60
2018-08-07T09:07:42.887Z,8.50
2018-08-07T09:10:12.897Z,9.60
2018-08-07T09:12:40.986Z,15.80
2018-08-07T09:15:09.406Z,10.03
2018-08-07T09:17:37.455Z,18.23
2018-08-07T09:20:06.671Z,7.60
2018-08-07T09:22:34.659Z,7.93
2018-08-07T09:28:00.799Z,11.23
2018-08-07T09:30:29.921Z,9.40
2018-08-07T09:32:58.590Z,16.47
2018-08-07T09:35:26.817Z,10.17
2018-08-07T09:37:56.152Z,10.37
2018-08-07T09:40:24.128Z,12.70
2018-08-07T09:42:53.380Z,11.90
2018-08-07T09:45:26.148Z,13.73
2018-08-07T09:47:54.139Z,13.27
2018-08-07T09:50:22.394Z,14.97
2018-08-07T09:52:50.679Z,13.50
2018-08-07T09:55:18.742Z,9.33
2018-08-07T10:18:50.367Z,14.50
2018-08-07T10:21:18.594Z,12.37
2018-08-07T10:23:46.805Z,11.43
2018-08-07T10:26:14.756Z,15.57
2018-08-07T10:28:43.067Z,19.33
2018-08-07T10:31:11.934Z,11.47
2018-08-07T10:33:39.954Z,10.30
2018-08-07T10:36:07.908Z,15.73
2018-08-07T10:38:35.854Z,10.17
2018-08-07T10:41:03.956Z,9.80
2018-08-07T10:43:31.931Z,12.03
2018-08-07T10:45:59.855Z,16.07
2018-08-07T10:48:27.824Z,13.70
2018-08-07T10:50:55.925Z,13.67
2018-08-07T10:53:23.879Z,11.07
2018-08-07T10:55:51.866Z,13.47
2018-08-07T10:58:20.418Z,12.47
2018-08-07T11:00:48.447Z,11.80
2018-08-07T11:03:16.532Z,11.50
2018-08-07T11:05:44.875Z,11.60
2018-08-07T11:08:12.771Z,12.53
2018-08-07T11:10:40.761Z,10.67
2018-08-07T11:13:08.862Z,9.43
2018-08-07T11:15:36.852Z,9.23
2018-08-07T11:18:04.983Z,11.90
2018-08-07T11:20:33.017Z,13.67
2018-08-07T11:23:02.146Z,13.20
2018-08-07T11:25:30.941Z,8.53
2018-08-07T11:27:59.970Z,13.10
2018-08-07T11:30:28.738Z,8.70
2018-08-07T11:32:57.918Z,20.70
2018-08-07T11:35:26.403Z,17.47
2018-08-07T11:37:56.224Z,15.07
2018-08-07T11:40:25.653Z,13.57
2018-08-07T11:42:55.716Z,9.90
2018-08-07T11:45:25.670Z,14.57
2018-08-07T11:47:53.889Z,15.07
2018-08-07T11:50:23.771Z,18.90
2018-08-07T11:52:51.732Z,13.10
2018-08-07T11:55:20.307Z,18.10
2018-08-07T11:57:49.832Z,22.70
2018-08-07T12:00:19.430Z,17.53
2018-08-07T12:02:47.747Z,11.43
2018-08-07T12:05:15.982Z,20.87
2018-08-07T12:07:44.918Z,12.50
2018-08-07T12:10:14.493Z,18.17
2018-08-07T12:12:43.164Z,13.33
2018-08-07T12:15:13.948Z,12.70
2018-08-07T12:17:41.993Z,11.70
2018-08-07T12:20:10.582Z,14.60
2018-08-07T12:22:39.141Z,11.47
2018-08-07T12:25:08.331Z,16.63
2018-08-07T12:27:36.308Z,16.23
2018-08-07T12:30:11.048Z,15.87
2018-08-07T12:32:39.022Z,13.37
2018-08-07T12:35:07.676Z,16.70
2018-08-07T12:37:36.802Z,20.27
2018-08-07T12:40:08.003Z,12.70
2018-08-07T12:42:36.608Z,13.93
2018-08-07T12:45:05.155Z,15.23
2018-08-07T12:47:33.575Z,12.53
2018-08-07T12:50:01.524Z,11.67
2018-08-07T12:52:29.526Z,22.37
2018-08-07T12:54:57.440Z,14.33
2018-08-07T12:57:25.644Z,12.53
2018-08-07T12:59:55.319Z,11.63
2018-08-07T13:02:24.972Z,17.43
2018-08-07T13:04:54.699Z,13.00
2018-08-07T13:07:22.980Z,14.47
2018-08-07T13:09:51.262Z,12.80
2018-08-07T13:12:19.470Z,25.70
2018-08-07T13:14:47.834Z,13.30
2018-08-07T13:17:16.689Z,14.10
2018-08-07T13:19:44.785Z,13.37
2018-08-07T13:22:12.850Z,18.60
2018-08-07T13:24:41.220Z,14.43
2018-08-07T13:27:09.343Z,25.33
2018-08-07T13:29:37.813Z,13.67
2018-08-07T13:32:05.828Z,15.30
2018-08-07T13:34:34.102Z,12.07
2018-08-07T13:37:02.242Z,13.10
2018-08-07T13:39:30.131Z,14.73
2018-08-07T13:41:58.112Z,17.97
2018-08-07T13:44:26.907Z,19.20
2018-08-07T13:46:55.216Z,18.00
2018-08-07T13:49:23.791Z,14.10
2018-08-07T13:51:51.829Z,17.30
2018-08-07T13:54:20.332Z,13.90
2018-08-07T13:56:48.347Z,25.77
2018-08-07T13:59:16.382Z,13.30
2018-08-07T14:01:44.393Z,16.40
2018-08-07T14:04:13.044Z,14.90
2018-08-07T14:06:41.792Z,16.30
2018-08-07T14:09:09.833Z,19.83
2018-08-07T14:11:38.105Z,13.27
2018-08-07T14:14:06.151Z,21.07
2018-08-07T14:16:34.052Z,19.33
2018-08-07T14:19:02.561Z,12.63
2018-08-07T14:21:30.605Z,15.57
2018-08-07T14:23:58.825Z,17.07
2018-08-07T14:26:27.548Z,16.23
2018-08-07T14:28:56.379Z,17.63
2018-08-07T14:31:24.299Z,16.73
2018-08-07T14:33:52.208Z,12.77
2018-08-07T14:36:20.171Z,14.60
2018-08-07T14:38:48.648Z,14.87
2018-08-07T14:41:17.372Z,19.63
2018-08-07T14:43:45.296Z,13.30
2018-08-07T14:46:13.630Z,15.40
2018-08-07T14:48:41.614Z,24.77
2018-08-07T14:51:09.677Z,16.60
2018-08-07T14:53:39.143Z,12.80
2018-08-07T14:56:07.211Z,16.93
2018-08-07T14:58:35.463Z,13.37
2018-08-07T15:01:03.958Z,20.30
2018-08-07T15:03:32.416Z,15.33
2018-08-07T15:06:01.583Z,26.67
2018-08-07T15:08:29.567Z,15.43
2018-08-07T15:10:57.534Z,11.83
2018-08-07T15:13:25.449Z,15.00
2018-08-07T15:15:53.410Z,15.03
2018-08-07T15:18:21.371Z,13.67
2018-08-07T15:20:49.495Z,14.97
2018-08-07T15:23:18.100Z,16.20
2018-08-07T15:25:46.978Z,13.00
2018-08-07T15:28:14.961Z,12.23
2018-08-07T15:30:43.592Z,12.67
2018-08-07T15:33:11.520Z,12.60
2018-08-07T15:35:39.536Z,15.27
2018-08-07T15:38:07.652Z,20.30
2018-08-07T15:40:35.896Z,12.27
2018-08-07T15:43:03.902Z,14.47
2018-08-07T15:45:31.951Z,14.33
2018-08-07T15:47:59.923Z,15.90
2018-08-07T15:50:28.324Z,17.83
2018-08-07T15:52:56.453Z,14.17
2018-08-07T15:55:25.872Z,15.80
2018-08-07T15:57:54.559Z,20.63
2018-08-07T16:00:26.015Z,18.70
2018-08-07T16:02:55.119Z,19.40
2018-08-07T16:05:23.173Z,17.33
2018-08-07T16:07:52.190Z,18.07
2018-08-07T16:10:20.559Z,19.37
2018-08-07T16:12:49.402Z,14.73
2018-08-07T16:15:17.306Z,15.20
2018-08-07T16:17:46.343Z,15.17
2018-08-07T16:20:14.390Z,12.97
2018-08-07T16:22:42.760Z,13.03
2018-08-07T16:25:12.386Z,18.90
2018-08-07T16:27:42.998Z,14.73
2018-08-07T16:30:16.463Z,18.60
2018-08-07T16:32:45.710Z,15.63
2018-08-07T16:35:14.733Z,13.10
2018-08-07T16:37:44.399Z,15.40
2018-08-07T16:40:15.683Z,13.70
2018-08-07T16:42:43.732Z,13.67
2018-08-07T16:45:15.103Z,12.63
2018-08-07T16:47:43.463Z,14.17
2018-08-07T16:50:14.273Z,13.93
2018-08-07T16:52:42.569Z,14.93
2018-08-07T16:55:11.044Z,13.03
2018-08-07T16:57:39.647Z,20.40
2018-08-07T17:00:09.572Z,17.43
2018-08-07T17:02:39.146Z,20.40
2018-08-07T17:05:09.745Z,20.20
2018-08-07T17:07:37.877Z,27.03
2018-08-07T17:10:09.243Z,21.77
2018-08-07T17:12:37.379Z,17.40
2018-08-07T17:15:07.065Z,16.53
2018-08-07T17:17:35.484Z,25.53
2018-08-07T17:20:04.862Z,23.47
2018-08-07T17:22:32.809Z,20.43
2018-08-07T17:25:00.775Z,21.20
2018-08-07T17:27:28.730Z,19.90
2018-08-07T17:29:57.545Z,24.80
2018-08-07T17:32:26.039Z,18.27
2018-08-07T17:34:53.996Z,19.53
2018-08-07T17:37:22.575Z,25.10
2018-08-07T17:39:50.655Z,24.33
2018-08-07T17:42:18.591Z,17.63
2018-08-07T17:44:46.535Z,15.93
2018-08-07T17:47:14.822Z,18.70
2018-08-07T17:49:45.456Z,18.50
2018-08-07T17:52:13.345Z,19.07
2018-08-07T17:54:41.278Z,17.30
2018-08-07T17:57:09.645Z,18.33
2018-08-07T17:59:38.800Z,17.10
2018-08-07T18:02:07.000Z,18.13
2018-08-07T18:04:34.933Z,26.37
2018-08-07T18:07:03.044Z,17.73
2018-08-07T18:09:32.842Z,19.77
2018-08-07T18:12:00.764Z,20.10
2018-08-07T18:14:29.981Z,21.90
2018-08-07T18:16:57.956Z,22.37
2018-08-07T18:19:25.847Z,18.93
2018-08-07T18:21:53.779Z,26.70
2018-08-07T18:24:22.047Z,21.57
2018-08-07T18:26:50.870Z,23.53
2018-08-07T18:29:18.800Z,46.80
2018-08-07T18:31:47.038Z,21.73
2018-08-07T18:34:15.855Z,15.90
2018-08-07T18:36:43.752Z,21.93
2018-08-07T18:39:12.224Z,17.97
2018-08-07T18:41:40.163Z,15.40
2018-08-07T18:44:08.104Z,15.60
2018-08-07T18:46:36.596Z,15.60
2018-08-07T18:49:04.599Z,15.73
2018-08-07T18:51:32.656Z,19.30
2018-08-07T18:54:00.467Z,13.47
2018-08-07T18:56:28.437Z,13.13
2018-08-07T18:58:56.381Z,13.73
2018-08-07T19:01:24.580Z,15.90
2018-08-07T19:03:53.598Z,13.97
2018-08-07T19:06:21.571Z,16.30
2018-08-07T19:08:49.584Z,16.10
2018-08-07T19:11:17.495Z,14.70
2018-08-07T19:13:45.402Z,15.20
2018-08-07T19:16:13.264Z,16.83
2018-08-07T19:18:41.142Z,18.67
2018-08-07T19:21:09.012Z,17.77
2018-08-07T19:23:36.966Z,18.97
2018-08-07T19:26:05.572Z,15.77
2018-08-07T19:28:33.578Z,18.40
2018-08-07T19:31:02.196Z,17.90
2018-08-07T19:33:30.191Z,20.10
2018-08-07T19:35:58.085Z,16.67
2018-08-07T19:38:26.013Z,20.90
2018-08-07T19:40:54.471Z,17.90
2018-08-07T19:43:22.873Z,16.80
2018-08-07T19:45:50.803Z,19.10
2018-08-07T19:48:18.925Z,23.00
2018-08-07T19:50:46.890Z,19.93
2018-08-07T19:53:14.805Z,17.57
2018-08-07T19:55:42.778Z,16.83
2018-08-07T19:58:10.846Z,21.90
2018-08-07T20:00:38.688Z,19.60
2018-08-07T20:03:07.213Z,19.37
2018-08-07T20:05:35.768Z,16.50
2018-08-07T20:08:03.803Z,21.27
2018-08-07T20:10:32.486Z,19.33
2018-08-07T20:13:00.465Z,20.43
2018-08-07T20:15:29.171Z,27.50
2018-08-07T20:17:57.532Z,22.50
2018-08-07T20:20:26.204Z,25.33
2018-08-07T20:22:54.783Z,31.00
2018-08-07T20:25:22.887Z,24.50
2018-08-07T20:27:50.836Z,19.17
2018-08-07T20:30:20.314Z,20.47
2018-08-07T20:32:49.545Z,22.90
2018-08-07T20:35:17.550Z,25.87
2018-08-07T20:37:45.530Z,23.20
2018-08-07T20:40:22.971Z,23.63
2018-08-07T20:42:51.654Z,21.10
2018-08-07T20:45:20.831Z,24.03
2018-08-07T20:47:49.131Z,23.60
2018-08-07T20:50:20.313Z,23.37
2018-08-07T20:52:49.128Z,21.73
2018-08-07T20:55:18.250Z,29.47
2018-08-07T20:57:47.702Z,25.07
2018-08-07T21:00:23.974Z,29.03
2018-08-07T21:02:52.204Z,25.40
2018-08-07T21:05:20.887Z,22.87
2018-08-07T21:07:48.877Z,21.70
2018-08-07T21:10:18.663Z,30.70
2018-08-07T21:12:46.592Z,24.70
2018-08-07T21:15:14.518Z,21.80
2018-08-07T21:17:42.394Z,23.67
2018-08-07T21:20:13.573Z,21.03
2018-08-07T21:22:41.687Z,20.70
2018-08-07T21:25:13.449Z,25.27
2018-08-07T21:27:42.122Z,20.67
2018-08-07T21:30:12.942Z,23.87
2018-08-07T21:32:41.538Z,22.17
2018-08-07T21:35:10.637Z,22.63
2018-08-07T21:37:39.638Z,20.07
2018-08-07T21:40:10.378Z,20.33
2018-08-07T21:42:39.172Z,19.50
2018-08-07T21:45:07.439Z,18.80
2018-08-07T21:47:36.053Z,21.70
2018-08-07T21:50:05.487Z,20.83
2018-08-07T21:52:34.531Z,22.40
2018-08-07T21:55:02.505Z,24.13
2018-08-07T21:57:30.465Z,21.77
2018-08-07T21:59:59.655Z,21.70
2018-08-07T22:02:27.564Z,24.40
2018-08-07T22:04:56.804Z,24.87
2018-08-07T22:07:24.798Z,25.60
2018-08-07T22:09:53.416Z,26.00
2018-08-07T22:12:21.421Z,27.50
2018-08-07T22:14:49.427Z,26.93
2018-08-07T22:17:17.278Z,26.00
2018-08-07T22:19:45.258Z,25.73
2018-08-07T22:22:13.245Z,28.17
2018-08-07T22:24:41.167Z,25.57
2018-08-07T22:27:09.122Z,27.03
2018-08-07T22:29:37.015Z,24.47
2018-08-07T22:32:06.177Z,26.60
2018-08-07T22:34:34.121Z,24.13
2018-08-07T22:37:02.024Z,31.83
2018-08-07T22:39:29.962Z,26.30
2018-08-07T22:41:58.416Z,29.43
2018-08-07T22:44:26.926Z,30.47
2018-08-07T22:46:55.915Z,26.23
2018-08-07T22:49:23.795Z,25.37
2018-08-07T22:51:52.546Z,24.97
2018-08-07T22:54:20.489Z,25.77
2018-08-07T22:56:49.014Z,25.33
2018-08-07T22:59:16.963Z,29.77
2018-08-07T23:01:46.623Z,28.03
2018-08-07T23:04:15.378Z,26.53
2018-08-07T23:06:43.945Z,32.57
2018-08-07T23:09:11.836Z,32.63
2018-08-07T23:11:39.749Z,28.77
2018-08-07T23:14:07.720Z,33.97
2018-08-07T23:16:35.636Z,29.60
2018-08-07T23:19:03.607Z,31.20
2018-08-07T23:21:31.553Z,27.07
2018-08-07T23:24:00.459Z,29.57
2018-08-07T23:26:28.757Z,32.00
2018-08-07T23:28:56.695Z,32.80
2018-08-07T23:31:24.696Z,31.83
2018-08-07T23:33:52.683Z,43.03
2018-08-07T23:36:21.712Z,36.50
2018-08-07T23:38:49.628Z,29.00
2018-08-07T23:41:18.475Z,39.27
2018-08-07T23:43:46.533Z,33.93
2018-08-07T23:46:14.456Z,34.00
2018-08-07T23:48:42.397Z,31.20
2018-08-07T23:51:11.115Z,34.83
2018-08-07T23:53:39.057Z,32.13
2018-08-07T23:56:07.636Z,31.03
2018-08-07T23:58:35.939Z,29.30
